createdAt,value
2018-07-11T00:00:38.749Z,62.7
2018-07-11T00:01:38.728Z,63.63
2018-07-11T00:02:38.740Z,63.4
2018-07-11T00:03:38.745Z,63.34
2018-07-11T00:04:38.748Z,64.47
2018-07-11T00:05:38.704Z,63.88
2018-07-11T00:06:38.726Z,64.21
2018-07-11T00:07:38.725Z,64.57
2018-07-11T00:08:38.722Z,63.37
2018-07-11T00:09:38.731Z,63.63
2018-07-11T00:10:38.719Z,64.63
2018-07-11T00:11:38.745Z,64.21
2018-07-11T00:12:38.737Z,65.18
2018-07-11T00:13:38.743Z,65.51
2018-07-11T00:14:38.747Z,64.7
2018-07-11T00:15:38.727Z,65.02
2018-07-11T00:16:38.752Z,64.13
2018-07-11T00:17:38.729Z,64.56
2018-07-11T00:18:38.762Z,67.01
2018-07-11T00:19:38.743Z,64.99
2018-07-11T00:20:38.732Z,64.71
2018-07-11T00:21:38.852Z,67.6
2018-07-11T00:22:38.755Z,66.09
2018-07-11T00:23:38.755Z,65.38
2018-07-11T00:24:38.808Z,65.84
2018-07-11T00:25:38.735Z,66.87
2018-07-11T00:26:38.875Z,66.63
2018-07-11T00:27:38.730Z,66.94
2018-07-11T00:28:38.755Z,66.87
2018-07-11T00:29:38.911Z,65.87
2018-07-11T00:30:38.738Z,65.04
2018-07-11T00:31:38.792Z,65.76
2018-07-11T00:32:38.752Z,64.83
2018-07-11T00:33:38.760Z,67.7
2018-07-11T00:34:38.786Z,67.6
2018-07-11T00:35:38.778Z,66.38
2018-07-11T00:36:38.755Z,66.11
2018-07-11T00:37:38.795Z,67.84
2018-07-11T00:38:38.919Z,67.11
2018-07-11T00:39:38.839Z,66.33
2018-07-11T00:40:38.740Z,66.24
2018-07-11T00:41:38.908Z,66.28
2018-07-11T00:42:38.916Z,66.44
2018-07-11T00:43:38.740Z,66.8
2018-07-11T00:44:38.772Z,66.6
2018-07-11T00:45:38.939Z,67.38
2018-07-11T00:46:38.780Z,67.99
2018-07-11T00:47:38.759Z,67.71
2018-07-11T00:48:38.785Z,66.66
2018-07-11T00:49:39.066Z,66.76
2018-07-11T00:50:39.074Z,67
2018-07-11T00:51:38.746Z,67.37
2018-07-11T00:52:38.883Z,66.51
2018-07-11T00:53:38.790Z,66.71
2018-07-11T00:54:38.751Z,66.68
2018-07-11T00:55:38.809Z,67.11
2018-07-11T00:56:38.765Z,67.54
2018-07-11T00:57:38.749Z,67.27
2018-07-11T00:58:38.747Z,67.23
2018-07-11T00:59:38.738Z,67.79
2018-07-11T01:00:38.823Z,67.3
2018-07-11T01:01:38.944Z,67.47
2018-07-11T01:02:38.798Z,68.15
2018-07-11T01:03:38.758Z,68.31
2018-07-11T01:04:38.777Z,69.09
2018-07-11T01:05:38.765Z,69.28
2018-07-11T01:06:38.839Z,68.81
2018-07-11T01:07:38.797Z,68.2
2018-07-11T01:08:38.762Z,67.72
2018-07-11T01:09:38.752Z,67.2
2018-07-11T01:10:38.759Z,67.75
2018-07-11T01:11:38.770Z,67.51
2018-07-11T01:12:38.746Z,67.02
2018-07-11T01:13:38.773Z,68.69
2018-07-11T01:14:38.757Z,67.98
2018-07-11T01:15:38.766Z,69.53
2018-07-11T01:16:38.769Z,69.16
2018-07-11T01:17:38.786Z,69.88
2018-07-11T01:18:38.766Z,68.95
2018-07-11T01:19:38.821Z,68.78
2018-07-11T01:20:38.790Z,68.01
2018-07-11T01:21:38.768Z,67.99
2018-07-11T01:22:38.767Z,67.23
2018-07-11T01:23:38.799Z,67.84
2018-07-11T01:24:38.808Z,67.6
2018-07-11T01:25:38.789Z,67.11
2018-07-11T01:26:38.757Z,66.55
2018-07-11T01:27:38.764Z,67.21
2018-07-11T01:28:38.756Z,66.75
2018-07-11T01:29:38.750Z,67.65
2018-07-11T01:30:38.770Z,66.86
2018-07-11T01:31:38.793Z,66.49
2018-07-11T01:32:38.764Z,66.07
2018-07-11T01:33:38.776Z,67.93
2018-07-11T01:34:38.783Z,66.66
2018-07-11T01:35:38.778Z,67.46
2018-07-11T01:36:38.771Z,67.38
2018-07-11T01:37:38.833Z,66.77
2018-07-11T01:38:38.821Z,67.29
2018-07-11T01:39:38.849Z,67.86
2018-07-11T01:40:38.799Z,67.87
2018-07-11T01:41:38.808Z,68.68
2018-07-11T01:42:38.815Z,68.82
2018-07-11T01:43:38.790Z,68.53
2018-07-11T01:44:38.796Z,68.85
2018-07-11T01:45:38.863Z,68.16
2018-07-11T01:46:38.761Z,70.07
2018-07-11T01:47:38.770Z,69.08
2018-07-11T01:48:38.821Z,68.99
2018-07-11T01:49:39.241Z,69.52
2018-07-11T01:50:38.823Z,70.51
2018-07-11T01:51:38.948Z,70.88
2018-07-11T01:52:38.802Z,70.13
2018-07-11T01:53:38.811Z,69.15
2018-07-11T01:54:38.853Z,68.97
2018-07-11T01:55:38.834Z,68.49
2018-07-11T01:56:38.811Z,68.04
2018-07-11T01:57:38.808Z,70.37
2018-07-11T01:58:38.826Z,69.4
2018-07-11T01:59:38.775Z,70.19
2018-07-11T02:00:38.782Z,70.14
2018-07-11T02:01:38.803Z,69.26
2018-07-11T02:02:38.795Z,68.18
2018-07-11T02:03:38.963Z,70.28
2018-07-11T02:04:38.784Z,70.49
2018-07-11T02:05:38.807Z,69.53
2018-07-11T02:06:38.831Z,68.81
2018-07-11T02:07:38.820Z,69.09
2018-07-11T02:08:38.820Z,70.1
2018-07-11T02:09:38.856Z,70.71
2018-07-11T02:10:38.816Z,71.2
2018-07-11T02:11:38.862Z,70.49
2018-07-11T02:12:38.844Z,70.39
2018-07-11T02:13:39.033Z,70.04
2018-07-11T02:14:38.789Z,70.45
2018-07-11T02:15:38.801Z,70.35
2018-07-11T02:16:38.783Z,70.1
2018-07-11T02:17:38.816Z,70.99
2018-07-11T02:18:38.972Z,70.83
2018-07-11T02:19:38.794Z,70.91
2018-07-11T02:20:39.035Z,70.06
2018-07-11T02:21:38.942Z,70.63
2018-07-11T02:22:38.897Z,70.21
2018-07-11T02:23:38.823Z,69.81
2018-07-11T02:24:38.805Z,70.3
2018-07-11T02:25:38.834Z,69.5
2018-07-11T02:26:38.837Z,69.53
2018-07-11T02:27:38.844Z,70.3
2018-07-11T02:28:38.803Z,70.26
2018-07-11T02:29:38.805Z,69.02
2018-07-11T02:30:38.846Z,68.74
2018-07-11T02:31:38.839Z,69.11
2018-07-11T02:32:38.792Z,69.65
2018-07-11T02:33:38.811Z,69.53
2018-07-11T02:34:38.817Z,69.24
2018-07-11T02:35:38.811Z,69.41
2018-07-11T02:36:38.849Z,69.14
2018-07-11T02:37:38.883Z,69.01
2018-07-11T02:38:38.824Z,68.7
2018-07-11T02:39:38.821Z,68.46
2018-07-11T02:40:39.133Z,68.56
2018-07-11T02:41:38.834Z,68.74
2018-07-11T02:42:38.831Z,68.93
2018-07-11T02:43:38.847Z,68.68
2018-07-11T02:44:38.836Z,68.59
2018-07-11T02:45:38.853Z,68.43
2018-07-11T02:46:38.801Z,68.71
2018-07-11T02:47:38.837Z,68.75
2018-07-11T02:48:38.828Z,68.36
2018-07-11T02:49:39.015Z,68.65
2018-07-11T02:50:38.830Z,68.29
2018-07-11T02:51:38.849Z,68
2018-07-11T02:52:39.007Z,68.14
2018-07-11T02:53:38.842Z,67.66
2018-07-11T02:54:38.871Z,67.66
2018-07-11T02:55:38.853Z,68.06
2018-07-11T02:56:38.908Z,68.11
2018-07-11T02:57:38.892Z,68.14
2018-07-11T02:58:38.887Z,68.48
2018-07-11T02:59:38.848Z,68.42
2018-07-11T03:00:38.946Z,68.87
2018-07-11T03:01:39.002Z,69.25
2018-07-11T03:02:39.012Z,69.3
2018-07-11T03:03:40.117Z,69.55
2018-07-11T03:04:38.902Z,69.31
2018-07-11T03:05:38.889Z,68.93
2018-07-11T03:06:38.823Z,69.47
2018-07-11T03:07:38.868Z,69.61
2018-07-11T03:08:39.131Z,69.58
2018-07-11T03:09:38.881Z,69.77
2018-07-11T03:10:38.967Z,70.07
2018-07-11T03:11:38.854Z,70.18
2018-07-11T03:12:38.840Z,69.81
2018-07-11T03:13:38.970Z,70.12
2018-07-11T03:14:38.890Z,69.99
2018-07-11T03:15:38.989Z,70.3
2018-07-11T03:16:38.884Z,70.45
2018-07-11T03:17:38.889Z,70.3
2018-07-11T03:18:39.010Z,70.97
2018-07-11T03:19:38.876Z,71.07
2018-07-11T03:20:38.868Z,70.29
2018-07-11T03:21:38.893Z,70.39
2018-07-11T03:22:38.853Z,70.5
2018-07-11T03:23:38.842Z,70.4
2018-07-11T03:24:38.837Z,70.73
2018-07-11T03:25:39.007Z,71.35
2018-07-11T03:26:39.022Z,71.39
2018-07-11T03:27:38.842Z,71.03
2018-07-11T03:28:38.864Z,70.44
2018-07-11T03:29:38.855Z,70.87
2018-07-11T03:30:39.272Z,71.26
2018-07-11T03:31:38.874Z,71.46
2018-07-11T03:32:39.496Z,71.31
2018-07-11T03:33:38.861Z,71.23
2018-07-11T03:34:38.852Z,71.22
2018-07-11T03:35:38.975Z,71.36
2018-07-11T03:36:38.852Z,70.99
2018-07-11T03:37:38.854Z,70.82
2018-07-11T03:38:38.828Z,70.94
2018-07-11T03:39:38.875Z,71.19
2018-07-11T03:40:38.866Z,71.29
2018-07-11T03:41:38.858Z,71.67
2018-07-11T03:42:38.869Z,71.88
2018-07-11T03:43:38.904Z,71.86
2018-07-11T03:44:38.852Z,72.01
2018-07-11T03:45:38.866Z,71.95
2018-07-11T03:46:38.884Z,71.72
2018-07-11T03:47:38.878Z,72.18
2018-07-11T03:48:38.879Z,71.94
2018-07-11T03:49:38.929Z,72.24
2018-07-11T03:50:38.921Z,72.16
2018-07-11T03:51:38.863Z,72.79
2018-07-11T03:52:38.850Z,72.54
2018-07-11T03:53:39.018Z,72.48
2018-07-11T03:54:38.855Z,72.27
2018-07-11T03:55:38.918Z,72.28
2018-07-11T03:56:38.851Z,72.84
2018-07-11T03:57:38.841Z,72.54
2018-07-11T03:58:38.855Z,72.4
2018-07-11T03:59:39.009Z,72.93
2018-07-11T04:00:38.979Z,72.87
2018-07-11T04:01:39.017Z,72.57
2018-07-11T04:02:38.906Z,72.62
2018-07-11T04:03:38.938Z,72.6
2018-07-11T04:04:38.873Z,73.17
2018-07-11T04:05:38.866Z,72.96
2018-07-11T04:06:39.070Z,72.64
2018-07-11T04:07:38.868Z,72.77
2018-07-11T04:08:38.897Z,72.65
2018-07-11T04:09:38.924Z,72.71
2018-07-11T04:10:39.060Z,71.88
2018-07-11T04:11:39.278Z,71.92
2018-07-11T04:12:38.890Z,72.08
2018-07-11T04:13:38.910Z,71.72
2018-07-11T04:14:38.985Z,71.79
2018-07-11T04:15:39.037Z,71.79
2018-07-11T04:16:38.885Z,71.82
2018-07-11T04:17:39.285Z,71.69
2018-07-11T04:18:38.879Z,71.69
2018-07-11T04:19:38.991Z,71.47
2018-07-11T04:20:38.962Z,71.39
2018-07-11T04:21:38.922Z,71.66
2018-07-11T04:22:38.935Z,71.68
2018-07-11T04:23:38.999Z,71.21
2018-07-11T04:24:38.950Z,71.6
2018-07-11T04:25:38.934Z,71.31
2018-07-11T04:26:39.040Z,71.11
2018-07-11T04:27:39.277Z,70.97
2018-07-11T04:28:39.192Z,71.25
2018-07-11T04:29:39.020Z,70.97
2018-07-11T04:30:39.044Z,71.07
2018-07-11T04:31:38.932Z,71.3
2018-07-11T04:32:39.046Z,71.28
2018-07-11T04:33:39.032Z,71.04
2018-07-11T04:34:39.235Z,71.08
2018-07-11T04:35:39.032Z,71.03
2018-07-11T04:36:39.014Z,71.17
2018-07-11T04:37:39.119Z,71.05
2018-07-11T04:38:38.977Z,71.13
2018-07-11T04:39:39.772Z,70.99
2018-07-11T04:40:39.035Z,70.73
2018-07-11T04:41:38.862Z,69.97
2018-07-11T04:42:39.605Z,70.43
2018-07-11T04:43:38.984Z,70.45
2018-07-11T04:44:38.948Z,70.48
2018-07-11T04:45:39.026Z,70.33
2018-07-11T04:46:38.972Z,70.16
2018-07-11T04:47:38.949Z,70.33
2018-07-11T04:48:38.945Z,69.88
2018-07-11T04:49:38.986Z,69.54
2018-07-11T04:50:38.926Z,69.29
2018-07-11T04:51:38.906Z,69.38
2018-07-11T04:52:39.076Z,68.99
2018-07-11T04:53:38.893Z,68.68
2018-07-11T04:54:38.885Z,68.57
2018-07-11T04:55:38.896Z,68.87
2018-07-11T04:56:38.944Z,68.8
2018-07-11T04:57:38.937Z,68.99
2018-07-11T04:58:39.102Z,68.83
2018-07-11T04:59:38.902Z,69.19
2018-07-11T05:00:38.896Z,68.77
2018-07-11T05:01:40.211Z,68.67
2018-07-11T05:02:39.084Z,68.71
2018-07-11T05:03:38.942Z,69.19
2018-07-11T05:04:39.043Z,69.73
2018-07-11T05:05:38.900Z,69.75
2018-07-11T05:06:38.980Z,70.32
2018-07-11T05:07:38.935Z,70.26
2018-07-11T05:08:38.950Z,70.33
2018-07-11T05:09:38.931Z,70
2018-07-11T05:10:38.889Z,70.35
2018-07-11T05:11:38.895Z,70.36
2018-07-11T05:12:38.940Z,70.71
2018-07-11T05:13:38.948Z,70.8
2018-07-11T05:14:38.982Z,70.63
2018-07-11T05:15:38.998Z,70.65
2018-07-11T05:16:39.188Z,70.55
2018-07-11T05:17:39.030Z,70.43
2018-07-11T05:18:39.091Z,70.46
2018-07-11T05:19:38.973Z,70.54
2018-07-11T05:20:38.982Z,70.63
2018-07-11T05:21:38.930Z,70.64
2018-07-11T05:22:39.036Z,70.39
2018-07-11T05:23:39.049Z,70.67
2018-07-11T05:24:38.931Z,70.37
2018-07-11T05:25:39.016Z,69.74
2018-07-11T05:26:38.902Z,69.98
2018-07-11T05:27:39.409Z,69.52
2018-07-11T05:28:39.060Z,69.18
2018-07-11T05:29:38.940Z,69.17
2018-07-11T05:30:38.948Z,68.99
2018-07-11T05:31:38.978Z,69
2018-07-11T05:32:38.982Z,69.51
2018-07-11T05:33:39.063Z,69.05
2018-07-11T05:34:38.969Z,69.26
2018-07-11T05:35:39.050Z,68.68
2018-07-11T05:36:39.045Z,68.65
2018-07-11T05:37:38.954Z,68.87
2018-07-11T05:38:39.032Z,68.82
2018-07-11T05:39:38.992Z,68.82
2018-07-11T05:40:38.940Z,68.77
2018-07-11T05:41:39.079Z,68.96
2018-07-11T05:42:39.006Z,68.7
2018-07-11T05:43:39.215Z,68.72
2018-07-11T05:44:38.915Z,69.07
2018-07-11T05:45:38.933Z,68.74
2018-07-11T05:46:39.107Z,68.99
2018-07-11T05:47:38.912Z,69.11
2018-07-11T05:48:39.000Z,69
2018-07-11T05:49:38.926Z,68.8
2018-07-11T05:50:39.000Z,68.54
2018-07-11T05:51:38.985Z,68.51
2018-07-11T05:52:39.006Z,68.16
2018-07-11T05:53:39.027Z,68.29
2018-07-11T05:54:39.010Z,67.5
2018-07-11T05:55:39.117Z,67.09
2018-07-11T05:56:38.914Z,66.81
2018-07-11T05:57:38.939Z,66.96
2018-07-11T05:58:39.021Z,66.77
2018-07-11T05:59:39.240Z,66.79
2018-07-11T06:00:39.036Z,67.01
2018-07-11T06:01:39.124Z,67.27
2018-07-11T06:02:39.224Z,66.38
2018-07-11T06:03:39.256Z,66.84
2018-07-11T06:04:41.969Z,66.53
2018-07-11T06:05:38.957Z,66.82
2018-07-11T06:06:39.056Z,67.07
2018-07-11T06:07:39.152Z,67.23
2018-07-11T06:08:38.970Z,67.55
2018-07-11T06:09:39.006Z,67.77
2018-07-11T06:10:38.928Z,67.71
2018-07-11T06:11:39.675Z,67.81
2018-07-11T06:12:38.948Z,67.81
2018-07-11T06:13:39.389Z,67.58
2018-07-11T06:14:39.122Z,67.99
2018-07-11T06:15:38.953Z,68.09
2018-07-11T06:16:39.609Z,68.12
2018-07-11T06:17:38.989Z,68.23
2018-07-11T06:18:38.969Z,68.06
2018-07-11T06:19:39.002Z,68.17
2018-07-11T06:20:38.978Z,68.36
2018-07-11T06:21:38.993Z,67.94
2018-07-11T06:22:38.997Z,68.11
2018-07-11T06:23:38.989Z,68.16
2018-07-11T06:24:38.948Z,67.75
2018-07-11T06:25:38.978Z,67.46
2018-07-11T06:26:39.027Z,67.19
2018-07-11T06:27:38.924Z,67.65
2018-07-11T06:28:39.439Z,67.91
2018-07-11T06:29:38.979Z,67.92
2018-07-11T06:30:38.969Z,67.74
2018-07-11T06:31:39.031Z,67.94
2018-07-11T06:32:38.976Z,67.84
2018-07-11T06:33:41.618Z,67.81
2018-07-11T06:34:39.453Z,67.75
2018-07-11T06:35:38.977Z,67.95
2018-07-11T06:36:39.032Z,67.83
2018-07-11T06:37:39.035Z,67.5
2018-07-11T06:38:39.011Z,67.81
2018-07-11T06:39:39.781Z,67.64
2018-07-11T06:40:39.004Z,68.12
2018-07-11T06:41:39.078Z,68.04
2018-07-11T06:42:43.530Z,68.03
2018-07-11T06:43:39.020Z,68.05
2018-07-11T06:44:39.013Z,68.22
2018-07-11T06:45:39.036Z,68.11
2018-07-11T06:46:39.161Z,68.3
2018-07-11T06:47:39.119Z,68.15
2018-07-11T06:48:38.951Z,68.38
2018-07-11T06:49:39.077Z,68.53
2018-07-11T06:50:39.033Z,68.55
2018-07-11T06:51:39.173Z,68.35
2018-07-11T06:52:39.003Z,68.2
2018-07-11T06:53:39.011Z,67.74
2018-07-11T06:54:39.010Z,67.68
2018-07-11T06:55:39.021Z,67.92
2018-07-11T06:56:39.001Z,68.61
2018-07-11T06:57:39.330Z,68.5
2018-07-11T06:58:39.011Z,68.45
2018-07-11T06:59:38.995Z,68.49
2018-07-11T07:00:39.000Z,68.45
2018-07-11T07:01:39.055Z,68.14
2018-07-11T07:02:39.008Z,67.89
2018-07-11T07:03:39.566Z,68.18
2018-07-11T07:04:38.981Z,68.27
2018-07-11T07:05:38.982Z,68.24
2018-07-11T07:06:39.072Z,68.05
2018-07-11T07:07:39.004Z,67.68
2018-07-11T07:08:39.055Z,68.06
2018-07-11T07:09:38.994Z,68.14
2018-07-11T07:10:39.070Z,67.87
2018-07-11T07:11:39.382Z,67.78
2018-07-11T07:12:39.142Z,67.89
2018-07-11T07:13:39.138Z,67.99
2018-07-11T07:14:38.975Z,68.04
2018-07-11T07:15:38.979Z,67.87
2018-07-11T07:16:39.362Z,67.57
2018-07-11T07:17:39.004Z,67.63
2018-07-11T07:18:38.966Z,67.99
2018-07-11T07:19:39.019Z,67.73
2018-07-11T07:20:39.089Z,68.06
2018-07-11T07:21:38.985Z,67.9
2018-07-11T07:22:39.172Z,67.38
2018-07-11T07:23:39.044Z,67.28
2018-07-11T07:24:39.019Z,67.37
2018-07-11T07:25:39.089Z,67.54
2018-07-11T07:26:38.969Z,67.34
2018-07-11T07:27:39.144Z,67.22
2018-07-11T07:28:39.047Z,66.77
2018-07-11T07:29:39.014Z,67.02
2018-07-11T07:30:38.979Z,65.9
2018-07-11T07:31:39.002Z,66.28
2018-07-11T07:32:38.992Z,65.91
2018-07-11T07:33:38.969Z,65.87
2018-07-11T07:34:39.197Z,66.14
2018-07-11T07:35:39.014Z,66.07
2018-07-11T07:36:39.061Z,66.58
2018-07-11T07:37:38.981Z,66.29
2018-07-11T07:38:38.981Z,66.49
2018-07-11T07:39:39.014Z,66.23
2018-07-11T07:40:39.001Z,66.09
2018-07-11T07:41:39.007Z,66.14
2018-07-11T07:42:38.978Z,66
2018-07-11T07:43:39.009Z,66.32
2018-07-11T07:44:38.988Z,66.22
2018-07-11T07:45:39.001Z,66.04
2018-07-11T07:46:38.999Z,65.7
2018-07-11T07:47:39.004Z,65.87
2018-07-11T07:48:38.961Z,65.37
2018-07-11T07:49:39.010Z,64.87
2018-07-11T07:50:39.001Z,64.34
2018-07-11T07:51:39.038Z,64.23
2018-07-11T07:52:38.992Z,64.76
2018-07-11T07:53:38.984Z,64.88
2018-07-11T07:54:39.017Z,65.28
2018-07-11T07:55:39.015Z,65.1
2018-07-11T07:56:39.069Z,65.29
2018-07-11T07:57:39.103Z,65.66
2018-07-11T07:58:39.058Z,65.56
2018-07-11T07:59:39.219Z,65.67
2018-07-11T08:00:39.095Z,65.71
2018-07-11T08:01:39.033Z,65.73
2018-07-11T08:02:39.031Z,65.68
2018-07-11T08:03:38.993Z,65.61
2018-07-11T08:04:39.242Z,65.45
2018-07-11T08:05:39.055Z,65.76
2018-07-11T08:06:39.112Z,65.62
2018-07-11T08:07:38.988Z,65.37
2018-07-11T08:08:38.990Z,65.16
2018-07-11T08:09:39.019Z,65.58
2018-07-11T08:10:39.039Z,65.38
2018-07-11T08:11:39.059Z,65.09
2018-07-11T08:12:39.347Z,65
2018-07-11T08:13:39.021Z,65.04
2018-07-11T08:14:39.102Z,65.47
2018-07-11T08:15:38.995Z,65.58
2018-07-11T08:16:39.036Z,64.78
2018-07-11T08:17:39.049Z,64.58
2018-07-11T08:18:39.057Z,64.26
2018-07-11T08:19:38.995Z,64.35
2018-07-11T08:20:39.027Z,64.32
2018-07-11T08:21:38.993Z,64.09
2018-07-11T08:22:39.013Z,63.46
2018-07-11T08:23:39.056Z,63.71
2018-07-11T08:24:39.020Z,63.2
2018-07-11T08:25:39.001Z,63.74
2018-07-11T08:26:39.037Z,64.15
2018-07-11T08:27:39.010Z,64.22
2018-07-11T08:28:39.042Z,64.65
2018-07-11T08:29:39.332Z,64.38
2018-07-11T08:30:39.051Z,64.42
2018-07-11T08:31:39.034Z,64.28
2018-07-11T08:32:39.050Z,64.37
2018-07-11T08:33:39.025Z,64.23
2018-07-11T08:34:39.369Z,64.22
2018-07-11T08:35:39.054Z,64.26
2018-07-11T08:36:39.011Z,64.24
2018-07-11T08:37:39.075Z,63.77
2018-07-11T08:38:39.676Z,63.89
2018-07-11T08:39:39.020Z,63.97
2018-07-11T08:40:39.017Z,63.97
2018-07-11T08:41:39.188Z,64.14
2018-07-11T08:42:39.186Z,64.24
2018-07-11T08:43:39.060Z,63.92
2018-07-11T08:44:39.018Z,63.97
2018-07-11T08:45:39.017Z,64
2018-07-11T08:46:39.273Z,63.69
2018-07-11T08:47:39.323Z,63.69
2018-07-11T08:48:39.044Z,63.99
2018-07-11T08:49:39.021Z,63.93
2018-07-11T08:50:39.101Z,63.89
2018-07-11T08:51:39.060Z,63.54
2018-07-11T08:52:39.042Z,63.78
2018-07-11T08:53:39.086Z,63.73
2018-07-11T08:54:39.012Z,63.67
2018-07-11T08:55:39.116Z,63.62
2018-07-11T08:56:39.025Z,63.35
2018-07-11T08:57:39.042Z,63.15
2018-07-11T08:58:39.122Z,63.33
2018-07-11T08:59:39.048Z,63.16
2018-07-11T09:00:39.028Z,62.86
2018-07-11T09:01:39.032Z,62.94
2018-07-11T09:02:39.281Z,62.89
2018-07-11T09:03:39.079Z,62.51
2018-07-11T09:04:39.360Z,62.63
2018-07-11T09:05:39.082Z,62.79
2018-07-11T09:06:39.065Z,62.51
2018-07-11T09:07:39.167Z,62.81
2018-07-11T09:08:39.369Z,62.75
2018-07-11T09:09:39.085Z,62.99
2018-07-11T09:10:39.650Z,63.16
2018-07-11T09:11:39.092Z,62.59
2018-07-11T09:12:39.043Z,62.81
2018-07-11T09:13:39.072Z,63.04
2018-07-11T09:14:39.151Z,63.37
2018-07-11T09:15:39.045Z,63.13
2018-07-11T09:16:39.135Z,62.88
2018-07-11T09:17:39.070Z,62.87
2018-07-11T09:18:39.107Z,62.94
2018-07-11T09:19:39.070Z,62.81
2018-07-11T09:20:39.066Z,62.69
2018-07-11T09:21:39.038Z,62.45
2018-07-11T09:22:39.239Z,62.11
2018-07-11T09:23:39.211Z,62.14
2018-07-11T09:24:39.133Z,62.01
2018-07-11T09:25:39.045Z,62.04
2018-07-11T09:26:39.080Z,62.02
2018-07-11T09:27:39.035Z,62.03
2018-07-11T09:28:39.037Z,61.81
2018-07-11T09:29:39.624Z,62.01
2018-07-11T09:30:39.507Z,62.11
2018-07-11T09:31:39.211Z,62.05
2018-07-11T09:32:39.073Z,62.05
2018-07-11T09:33:39.147Z,62.09
2018-07-11T09:34:39.106Z,62.2
2018-07-11T09:35:39.049Z,62.36
2018-07-11T09:36:39.153Z,62.48
2018-07-11T09:37:39.382Z,62.9
2018-07-11T09:38:39.072Z,62.94
2018-07-11T09:39:39.055Z,63.29
2018-07-11T09:40:39.227Z,63.02
2018-07-11T09:41:39.044Z,63.06
2018-07-11T09:42:39.069Z,63.08
2018-07-11T09:43:39.072Z,63.31
2018-07-11T09:44:39.069Z,63.16
2018-07-11T09:45:39.799Z,63.97
2018-07-11T09:46:39.202Z,63.73
2018-07-11T09:47:39.189Z,64.31
2018-07-11T09:48:39.281Z,64.1
2018-07-11T09:49:39.130Z,63.55
2018-07-11T09:50:39.092Z,63.67
2018-07-11T09:51:39.276Z,63.51
2018-07-11T09:52:39.051Z,63.55
2018-07-11T09:53:39.114Z,63.88
2018-07-11T09:54:39.120Z,63.76
2018-07-11T09:55:39.066Z,63.54
2018-07-11T09:56:39.067Z,63.54
2018-07-11T09:57:39.342Z,63.48
2018-07-11T09:58:39.050Z,63.66
2018-07-11T09:59:39.056Z,62.97
2018-07-11T10:00:39.135Z,63.13
2018-07-11T10:01:39.110Z,62.89
2018-07-11T10:02:39.055Z,62.94
2018-07-11T10:03:39.229Z,63.07
2018-07-11T10:04:39.087Z,63.08
2018-07-11T10:05:39.070Z,63.33
2018-07-11T10:06:40.194Z,63.41
2018-07-11T10:07:39.111Z,63.57
2018-07-11T10:08:39.095Z,63.45
2018-07-11T10:09:39.060Z,63.37
2018-07-11T10:10:39.085Z,63.32
2018-07-11T10:11:39.132Z,63.61
2018-07-11T10:12:39.566Z,63.37
2018-07-11T10:13:39.061Z,63.56
2018-07-11T10:14:39.098Z,63.41
2018-07-11T10:15:39.102Z,63.11
2018-07-11T10:16:39.062Z,63.07
2018-07-11T10:17:39.269Z,63.02
2018-07-11T10:18:39.093Z,63.23
2018-07-11T10:19:39.084Z,62.87
2018-07-11T10:20:39.094Z,62.91
2018-07-11T10:21:39.403Z,62.92
2018-07-11T10:22:39.253Z,62.8
2018-07-11T10:23:39.115Z,62.9
2018-07-11T10:24:39.085Z,62.76
2018-07-11T10:25:39.199Z,62.61
2018-07-11T10:26:39.148Z,62.74
2018-07-11T10:27:39.072Z,62.68
2018-07-11T10:28:39.228Z,62.94
2018-07-11T10:29:39.136Z,62.64
2018-07-11T10:30:39.083Z,62.75
2018-07-11T10:31:39.102Z,62.63
2018-07-11T10:32:39.120Z,62.4
2018-07-11T10:33:39.342Z,62.36
2018-07-11T10:34:39.086Z,62.28
2018-07-11T10:35:39.189Z,62.18
2018-07-11T10:36:39.110Z,62.3
2018-07-11T10:37:39.138Z,62.08
2018-07-11T10:38:39.175Z,62.24
2018-07-11T10:39:39.255Z,61.88
2018-07-11T10:40:39.161Z,62.02
2018-07-11T10:41:39.197Z,61.99
2018-07-11T10:42:39.121Z,61.59
2018-07-11T10:43:39.284Z,61.17
2018-07-11T10:44:39.107Z,61.43
2018-07-11T10:45:39.173Z,61.15
2018-07-11T10:46:39.161Z,61.18
2018-07-11T10:47:39.151Z,60.96
2018-07-11T10:48:39.132Z,60.93
2018-07-11T10:49:39.301Z,60.67
2018-07-11T10:50:39.469Z,60.16
2018-07-11T10:51:39.157Z,60.36
2018-07-11T10:52:39.213Z,60.68
2018-07-11T10:53:39.261Z,60.21
2018-07-11T10:54:39.103Z,59.64
2018-07-11T10:55:39.125Z,60.1
2018-07-11T10:56:39.116Z,59.64
2018-07-11T10:57:39.842Z,60.23
2018-07-11T10:58:39.176Z,59.28
2018-07-11T10:59:39.150Z,59.08
2018-07-11T11:00:39.457Z,58.78
2018-07-11T11:01:39.129Z,58.96
2018-07-11T11:02:39.390Z,59.33
2018-07-11T11:03:39.123Z,59.22
2018-07-11T11:04:39.139Z,59.34
2018-07-11T11:05:39.280Z,58.82
2018-07-11T11:06:39.197Z,59.25
2018-07-11T11:07:39.141Z,59.22
2018-07-11T11:08:39.157Z,59.31
2018-07-11T11:09:39.197Z,58.98
2018-07-11T11:10:39.117Z,58.59
2018-07-11T11:11:39.094Z,58.35
2018-07-11T11:12:39.154Z,58.55
2018-07-11T11:13:39.130Z,58.8
2018-07-11T11:14:39.441Z,58.68
2018-07-11T11:15:39.161Z,58.85
2018-07-11T11:16:39.147Z,58.73
2018-07-11T11:17:39.130Z,58.34
2018-07-11T11:18:39.114Z,58.13
2018-07-11T11:19:39.132Z,57.92
2018-07-11T11:20:39.147Z,57.98
2018-07-11T11:21:39.156Z,57.43
2018-07-11T11:22:39.145Z,57.44
2018-07-11T11:23:39.116Z,57.02
2018-07-11T11:24:39.136Z,56.54
2018-07-11T11:25:39.320Z,56.82
2018-07-11T11:26:39.144Z,56.7
2018-07-11T11:27:39.173Z,56.32
2018-07-11T11:28:39.200Z,56.08
2018-07-11T11:29:39.171Z,55.98
2018-07-11T11:30:39.137Z,55.27
2018-07-11T11:31:39.185Z,55.1
2018-07-11T11:32:39.343Z,55.22
2018-07-11T11:33:39.162Z,55.69
2018-07-11T11:34:39.124Z,55.64
2018-07-11T11:35:39.410Z,55.09
2018-07-11T11:36:39.308Z,54.73
2018-07-11T11:37:39.170Z,53.84
2018-07-11T11:38:39.129Z,53.58
2018-07-11T11:39:39.174Z,53.49
2018-07-11T11:40:39.132Z,53.38
2018-07-11T11:41:39.954Z,53.53
2018-07-11T11:42:39.959Z,53.55
2018-07-11T11:43:39.171Z,54.01
2018-07-11T11:44:39.159Z,54.29
2018-07-11T11:45:39.166Z,53.6
2018-07-11T11:46:39.192Z,53.76
2018-07-11T11:47:39.183Z,54.02
2018-07-11T11:48:39.162Z,54.37
2018-07-11T11:49:39.174Z,54.44
2018-07-11T11:50:39.166Z,55.03
2018-07-11T11:51:39.246Z,55.24
2018-07-11T11:52:39.254Z,55.65
2018-07-11T11:53:39.170Z,56.19
2018-07-11T11:54:39.174Z,56.38
2018-07-11T11:55:39.156Z,56.33
2018-07-11T11:56:39.132Z,56.67
2018-07-11T11:57:39.159Z,56.51
2018-07-11T11:58:39.460Z,56.55
2018-07-11T11:59:39.158Z,56.51
2018-07-11T12:00:39.249Z,56.4
2018-07-11T12:01:39.287Z,56.35
2018-07-11T12:02:39.236Z,56.39
2018-07-11T12:03:39.143Z,56.44
2018-07-11T12:04:39.159Z,56.41
2018-07-11T12:05:39.166Z,56.39
2018-07-11T12:06:39.324Z,56.2
2018-07-11T12:07:39.217Z,56.36
2018-07-11T12:08:39.132Z,56.37
2018-07-11T12:09:39.242Z,56.39
2018-07-11T12:10:39.141Z,56.33
2018-07-11T12:11:39.850Z,55.66
2018-07-11T12:12:39.178Z,54.94
2018-07-11T12:13:39.269Z,54.71
2018-07-11T12:14:39.323Z,54.25
2018-07-11T12:15:39.155Z,53.69
2018-07-11T12:16:39.347Z,53.77
2018-07-11T12:17:39.179Z,53.38
2018-07-11T12:18:39.244Z,52.75
2018-07-11T12:19:39.176Z,52.89
2018-07-11T12:20:39.149Z,52.82
2018-07-11T12:21:39.160Z,52.71
2018-07-11T12:22:39.154Z,52.43
2018-07-11T12:23:40.829Z,52.53
2018-07-11T12:24:39.291Z,52.36
2018-07-11T12:25:39.147Z,51.2
2018-07-11T12:26:39.160Z,50.73
2018-07-11T12:27:39.159Z,50.32
2018-07-11T12:28:39.154Z,49.99
2018-07-11T12:29:39.170Z,50.42
2018-07-11T12:30:39.225Z,50.27
2018-07-11T12:31:39.189Z,50.12
2018-07-11T12:32:39.165Z,49.87
2018-07-11T12:33:39.815Z,49.35
2018-07-11T12:34:39.217Z,49.65
2018-07-11T12:35:39.210Z,49.52
2018-07-11T12:36:39.197Z,49.45
2018-07-11T12:37:39.241Z,49.94
2018-07-11T12:38:39.217Z,48.8
2018-07-11T12:39:39.248Z,49.65
2018-07-11T12:40:39.263Z,48.96
2018-07-11T12:41:39.264Z,49.05
2018-07-11T12:42:39.246Z,49.38
2018-07-11T12:43:39.665Z,48.96
2018-07-11T12:44:39.663Z,49.68
2018-07-11T12:45:39.392Z,49.9
2018-07-11T12:46:39.405Z,50.03
2018-07-11T12:47:39.224Z,50.28
2018-07-11T12:48:39.249Z,50.37
2018-07-11T12:49:39.252Z,49.74
2018-07-11T12:50:39.298Z,49.86
2018-07-11T12:51:39.249Z,48.73
2018-07-11T12:52:39.303Z,49.09
2018-07-11T12:53:39.233Z,48.95
2018-07-11T12:54:39.243Z,48.61
2018-07-11T12:55:39.250Z,48.25